Time;durP1;ratioP1;P1;durP2;ratioP2;P2;SDS_P1;SDS_P2;PMS_P1;PMS_P2;Temp;Humidity;BMP_temperature;BMP_pressure;BME280_temperature;BME280_humidity;BME280_pressure;Samples;Min_cycle;Max_cycle;Signal;HPM_P1;HPM_P2
2023/09/29 00:00:15;;;;;;;9.37;8.40;;;18.20;99.90;;;;;;5021028;28;20554;-57
2023/09/29 00:02:44;;;;;;;9.87;8.97;;;18.20;99.90;;;;;;5027535;28;20468;-56
2023/09/29 00:05:15;;;;;;;8.67;7.80;;;18.20;99.90;;;;;;5019320;28;20578;-56
2023/09/29 00:07:43;;;;;;;8.47;7.77;;;18.20;99.90;;;;;;5020305;28;20953;-55
2023/09/29 00:10:15;;;;;;;8.77;7.90;;;18.20;99.90;;;;;;5018402;28;20611;-56
2023/09/29 00:12:45;;;;;;;8.93;8.23;;;18.20;99.90;;;;;;5023255;28;20468;-57
2023/09/29 00:15:13;;;;;;;9.27;8.50;;;18.20;99.90;;;;;;5020862;28;20526;-56
2023/09/29 00:17:42;;;;;;;9.60;7.87;;;18.20;99.90;;;;;;5022298;28;20498;-56
2023/09/29 00:20:16;;;;;;;9.00;8.23;;;18.20;99.90;;;;;;5017053;28;20478;-56
2023/09/29 00:22:45;;;;;;;9.23;8.33;;;18.20;99.90;;;;;;5018175;28;20470;-56
2023/09/29 00:25:12;;;;;;;9.20;8.30;;;18.20;99.90;;;;;;5018373;28;21035;-57
2023/09/29 00:27:40;;;;;;;10.23;9.33;;;18.20;99.90;;;;;;5021548;28;20546;-56
2023/09/29 00:30:12;;;;;;;9.27;8.47;;;18.20;99.90;;;;;;5016903;28;20475;-56
2023/09/29 00:32:45;;;;;;;9.33;8.50;;;18.20;99.90;;;;;;5017879;28;20468;-56
2023/09/29 00:35:18;;;;;;;9.60;8.60;;;18.20;99.90;;;;;;5026423;22;21097;-63
2023/09/29 00:37:46;;;;;;;10.33;9.30;;;18.20;99.90;;;;;;5004315;28;20783;-63
2023/09/29 00:40:14;;;;;;;10.50;9.07;;;18.20;99.90;;;;;;5008632;28;20771;-64
2023/09/29 00:42:43;;;;;;;8.97;8.00;;;18.20;99.90;;;;;;5001822;28;20496;-64
2023/09/29 00:45:16;;;;;;;9.80;8.27;;;18.20;99.90;;;;;;5008753;28;20488;-64
2023/09/29 00:47:49;;;;;;;9.10;8.40;;;18.20;99.90;;;;;;5009485;28;20472;-63
2023/09/29 00:50:18;;;;;;;11.00;8.87;;;18.20;99.90;;;;;;5004136;28;20475;-64
2023/09/29 00:52:48;;;;;;;9.80;8.80;;;18.20;99.90;;;;;;5002696;28;20475;-64
2023/09/29 00:55:19;;;;;;;9.73;8.83;;;18.20;99.90;;;;;;5002389;28;20496;-64
2023/09/29 00:57:47;;;;;;;10.00;8.50;;;18.20;99.90;;;;;;5001865;28;20483;-63
2023/09/29 01:00:29;;;;;;;9.10;8.30;;;18.20;99.90;;;;;;5002924;28;20531;-64
2023/09/29 01:02:58;;;;;;;10.60;9.33;;;18.20;99.90;;;;;;5006139;28;20941;-64
2023/09/29 01:05:29;;;;;;;9.67;8.73;;;18.20;99.90;;;;;;5006056;28;21028;-63
2023/09/29 01:07:57;;;;;;;9.17;8.40;;;18.20;99.90;;;;;;5006937;28;20511;-63
2023/09/29 01:10:27;;;;;;;10.10;9.20;;;18.10;99.90;;;;;;4997529;28;20567;-64
2023/09/29 01:12:55;;;;;;;13.93;8.87;;;18.20;99.90;;;;;;5002447;28;20559;-64
2023/09/29 01:15:24;;;;;;;8.37;7.60;;;18.10;99.90;;;;;;5003771;28;20599;-63
2023/09/29 01:17:52;;;;;;;9.40;8.70;;;18.10;99.90;;;;;;5002458;28;20500;-63
2023/09/29 01:20:27;;;;;;;9.70;8.80;;;18.10;99.90;;;;;;5002645;28;20468;-64
2023/09/29 01:22:55;;;;;;;9.60;8.80;;;18.10;99.90;;;;;;5007324;28;20493;-63
2023/09/29 01:25:25;;;;;;;9.83;8.20;;;18.10;99.90;;;;;;4999956;28;20571;-64
2023/09/29 01:27:54;;;;;;;9.30;8.50;;;18.10;99.90;;;;;;5005645;28;20475;-63
2023/09/29 01:30:22;;;;;;;11.10;8.70;;;18.10;99.90;;;;;;5000313;28;20476;-63
2023/09/29 01:32:51;;;;;;;10.20;9.20;;;18.10;99.90;;;;;;5005108;28;21108;-64
2023/09/29 01:35:23;;;;;;;9.33;8.53;;;18.10;99.90;;;;;;5001125;28;20504;-63
2023/09/29 01:37:54;;;;;;;10.03;9.07;;;18.10;99.90;;;;;;4999400;28;20530;-63
2023/09/29 01:40:23;;;;;;;9.10;8.37;;;18.10;99.90;;;;;;5000789;28;20483;-64
2023/09/29 01:42:53;;;;;;;10.33;9.23;;;18.10;99.90;;;;;;5002135;28;20497;-63
2023/09/29 01:45:21;;;;;;;8.57;7.87;;;18.10;99.90;;;;;;5002899;28;20532;-64
2023/09/29 01:47:50;;;;;;;9.50;8.70;;;18.10;99.90;;;;;;5008885;28;20570;-64
2023/09/29 01:50:20;;;;;;;8.70;7.90;;;18.10;99.90;;;;;;5007259;28;20476;-64
2023/09/29 01:52:49;;;;;;;9.50;8.57;;;18.10;99.90;;;;;;5002460;28;20515;-64
2023/09/29 01:55:22;;;;;;;9.50;8.70;;;18.10;99.90;;;;;;5007341;28;20492;-64
2023/09/29 01:57:54;;;;;;;9.67;8.60;;;18.00;99.90;;;;;;5005642;28;20810;-64
2023/09/29 02:00:23;;;;;;;10.10;9.20;;;18.00;99.90;;;;;;5002995;28;21003;-63
2023/09/29 02:02:53;;;;;;;9.77;8.87;;;18.00;99.90;;;;;;5011828;28;20915;-64
2023/09/29 02:05:22;;;;;;;9.60;8.50;;;18.00;99.90;;;;;;5008300;28;20500;-63
2023/09/29 02:07:51;;;;;;;9.40;8.70;;;18.00;99.90;;;;;;5004208;28;20861;-64
2023/09/29 02:10:20;;;;;;;9.50;8.73;;;18.00;99.90;;;;;;5010639;28;20502;-64
2023/09/29 02:12:54;;;;;;;10.27;9.47;;;18.00;99.90;;;;;;5004353;28;20472;-63
2023/09/29 02:15:22;;;;;;;9.70;8.80;;;18.00;99.90;;;;;;5001870;28;20554;-63
2023/09/29 02:17:51;;;;;;;9.53;8.67;;;18.00;99.90;;;;;;5002359;28;20476;-64
2023/09/29 02:20:21;;;;;;;9.30;8.57;;;18.00;99.90;;;;;;5012604;28;20892;-63
2023/09/29 02:22:49;;;;;;;11.20;10.30;;;18.00;99.90;;;;;;5005076;28;20504;-64
2023/09/29 02:25:18;;;;;;;10.20;9.30;;;18.00;99.90;;;;;;5004779;28;20582;-64
2023/09/29 02:27:48;;;;;;;10.23;9.23;;;18.00;99.90;;;;;;5000950;28;20482;-63
2023/09/29 02:30:17;;;;;;;10.10;9.20;;;18.00;99.90;;;;;;5006777;28;20580;-64
2023/09/29 02:32:45;;;;;;;11.23;10.33;;;18.00;99.90;;;;;;5002114;28;20484;-63
2023/09/29 02:35:14;;;;;;;10.80;9.80;;;18.00;99.90;;;;;;4999398;28;20495;-64
2023/09/29 02:37:42;;;;;;;10.17;9.23;;;18.00;99.90;;;;;;5004966;28;20548;-63
2023/09/29 02:40:12;;;;;;;10.60;9.60;;;17.90;99.90;;;;;;5003476;28;21934;-63
2023/09/29 02:42:40;;;;;;;11.47;10.37;;;17.90;99.90;;;;;;5000594;28;20488;-64
2023/09/29 02:45:09;;;;;;;10.10;9.20;;;17.90;99.90;;;;;;5001452;28;20530;-63
2023/09/29 02:47:39;;;;;;;11.80;10.60;;;17.90;99.90;;;;;;5004175;28;20977;-64
2023/09/29 02:50:09;;;;;;;11.20;10.20;;;17.90;99.90;;;;;;5004229;28;20468;-64
2023/09/29 02:52:38;;;;;;;11.37;10.27;;;17.90;99.90;;;;;;5000701;28;21281;-63
2023/09/29 02:55:11;;;;;;;10.80;9.90;;;17.90;99.90;;;;;;5000496;28;20524;-63
2023/09/29 02:57:41;;;;;;;11.07;10.17;;;17.90;99.90;;;;;;4996527;28;20487;-63
2023/09/29 03:00:15;;;;;;;11.30;10.30;;;17.90;99.90;;;;;;5002789;28;20801;-64
2023/09/29 03:02:44;;;;;;;11.03;10.00;;;17.90;99.90;;;;;;5003838;28;20506;-64
2023/09/29 03:05:15;;;;;;;11.27;10.37;;;17.90;99.90;;;;;;5003012;28;21048;-64
2023/09/29 03:07:44;;;;;;;11.23;10.33;;;17.90;99.90;;;;;;5005417;28;20476;-63
2023/09/29 03:10:14;;;;;;;11.77;10.77;;;17.90;99.90;;;;;;5004377;28;20972;-64
2023/09/29 03:12:42;;;;;;;10.37;9.47;;;17.80;99.90;;;;;;5000214;28;20975;-64
2023/09/29 03:15:14;;;;;;;11.73;10.73;;;17.80;99.90;;;;;;5005807;28;20692;-64
2023/09/29 03:17:44;;;;;;;10.97;10.17;;;17.80;99.90;;;;;;5007145;28;20480;-64
2023/09/29 03:20:12;;;;;;;11.20;10.20;;;17.80;99.90;;;;;;5003703;28;20473;-64
2023/09/29 03:22:43;;;;;;;12.20;11.17;;;17.80;99.90;;;;;;5006863;28;20492;-64
2023/09/29 03:25:16;;;;;;;11.50;10.50;;;17.80;99.90;;;;;;5008393;28;20554;-64
2023/09/29 03:27:45;;;;;;;11.77;10.73;;;17.70;99.90;;;;;;5001454;28;20962;-63
2023/09/29 03:30:13;;;;;;;12.00;10.90;;;17.70;99.90;;;;;;5006665;28;20583;-63
2023/09/29 03:32:41;;;;;;;11.60;10.43;;;17.70;99.90;;;;;;5006837;28;20492;-63
2023/09/29 03:35:13;;;;;;;11.67;10.70;;;17.60;99.90;;;;;;5003158;28;20967;-63
2023/09/29 03:37:42;;;;;;;11.60;10.60;;;17.60;99.90;;;;;;5004849;28;20985;-63
2023/09/29 03:40:13;;;;;;;11.93;10.93;;;17.60;99.90;;;;;;5002797;28;20503;-63
2023/09/29 03:42:42;;;;;;;11.13;10.23;;;17.60;99.90;;;;;;5007418;28;20504;-63
2023/09/29 03:45:12;;;;;;;12.67;11.40;;;17.50;99.90;;;;;;5008124;28;20532;-63
2023/09/29 03:47:41;;;;;;;11.83;10.83;;;17.50;99.90;;;;;;5007167;28;20463;-64
2023/09/29 03:50:12;;;;;;;12.90;11.80;;;17.50;99.90;;;;;;5002277;28;20478;-64
2023/09/29 03:52:42;;;;;;;12.63;11.50;;;17.50;99.90;;;;;;5000276;28;20550;-64
2023/09/29 03:55:12;;;;;;;12.33;11.13;;;17.50;99.90;;;;;;5003483;28;20868;-64
2023/09/29 03:57:42;;;;;;;13.63;12.37;;;17.40;99.90;;;;;;5002109;28;20977;-64
2023/09/29 04:00:12;;;;;;;13.20;11.97;;;17.40;99.90;;;;;;5006818;28;20496;-64
2023/09/29 04:02:41;;;;;;;13.17;11.97;;;17.40;99.90;;;;;;5006776;28;20492;-63
2023/09/29 04:05:12;;;;;;;13.70;12.50;;;17.40;99.90;;;;;;5000564;28;20878;-63
2023/09/29 04:07:40;;;;;;;13.70;12.23;;;17.40;99.90;;;;;;5015069;28;20472;-63
2023/09/29 04:10:10;;;;;;;13.60;12.40;;;17.40;99.90;;;;;;5012251;28;20863;-64
2023/09/29 04:12:38;;;;;;;12.20;11.30;;;17.40;99.90;;;;;;5003921;28;20468;-64
2023/09/29 04:15:08;;;;;;;14.00;12.70;;;17.40;99.90;;;;;;5005674;28;20524;-64
2023/09/29 04:17:36;;;;;;;13.87;12.67;;;17.30;99.90;;;;;;5002074;28;20773;-63
2023/09/29 04:20:05;;;;;;;12.40;11.30;;;17.30;99.90;;;;;;5005422;28;20471;-64
2023/09/29 04:22:35;;;;;;;13.50;12.40;;;17.30;99.90;;;;;;4995644;28;20480;-64
2023/09/29 04:25:07;;;;;;;13.23;12.10;;;17.30;99.90;;;;;;5004187;28;20579;-63
2023/09/29 04:27:35;;;;;;;14.30;13.00;;;17.30;99.90;;;;;;5002573;28;20531;-63
2023/09/29 04:30:05;;;;;;;14.10;12.90;;;17.30;99.90;;;;;;5004919;28;21020;-64
2023/09/29 04:32:33;;;;;;;13.67;12.47;;;17.30;99.90;;;;;;5002111;28;20476;-64
2023/09/29 04:35:01;;;;;;;13.60;12.43;;;17.30;99.90;;;;;;5003372;28;20488;-65
2023/09/29 04:37:29;;;;;;;12.90;11.70;;;17.30;99.90;;;;;;5001393;28;20542;-64
2023/09/29 04:39:59;;;;;;;13.90;12.60;;;17.30;99.90;;;;;;5006845;28;20555;-63
2023/09/29 04:42:27;;;;;;;14.83;13.40;;;17.30;99.90;;;;;;5004240;28;20519;-63
2023/09/29 04:44:55;;;;;;;13.30;12.17;;;17.30;99.90;;;;;;5004711;28;20500;-64
2023/09/29 04:47:23;;;;;;;13.57;12.47;;;17.20;99.90;;;;;;4998916;28;20898;-64
2023/09/29 04:49:52;;;;;;;13.77;12.60;;;17.30;99.90;;;;;;5002761;28;20503;-63
2023/09/29 04:52:20;;;;;;;12.33;11.37;;;17.30;99.90;;;;;;5003505;28;20854;-63
2023/09/29 04:54:48;;;;;;;14.77;11.80;;;17.30;99.90;;;;;;5000640;28;20578;-64
2023/09/29 04:57:17;;;;;;;15.57;13.00;;;17.30;99.90;;;;;;5001509;28;20944;-64
2023/09/29 04:59:46;;;;;;;13.83;12.60;;;17.30;99.90;;;;;;4998492;28;20468;-63
2023/09/29 05:02:14;;;;;;;13.67;12.53;;;17.30;99.90;;;;;;5002455;28;20472;-64
2023/09/29 05:04:42;;;;;;;14.53;12.70;;;17.30;99.90;;;;;;5002872;28;20507;-63
2023/09/29 05:07:11;;;;;;;14.60;13.07;;;17.30;99.90;;;;;;5001914;28;20479;-64
2023/09/29 05:09:39;;;;;;;13.60;12.50;;;17.30;99.90;;;;;;5004456;28;20907;-63
2023/09/29 05:12:07;;;;;;;13.37;12.27;;;17.30;99.90;;;;;;5001040;28;20502;-62
2023/09/29 05:14:37;;;;;;;14.27;12.83;;;17.30;99.90;;;;;;4999087;28;20480;-63
2023/09/29 05:17:05;;;;;;;13.53;12.23;;;17.30;99.90;;;;;;4992317;28;20472;-63
2023/09/29 05:19:33;;;;;;;13.63;12.33;;;17.30;99.90;;;;;;4987594;28;20487;-63
2023/09/29 05:22:02;;;;;;;12.60;11.57;;;17.30;99.90;;;;;;4999631;28;20546;-63
2023/09/29 05:24:30;;;;;;;13.27;12.27;;;17.30;99.90;;;;;;5000552;28;20491;-63
2023/09/29 05:26:58;;;;;;;13.60;12.50;;;17.30;99.90;;;;;;5008614;28;20475;-64
2023/09/29 05:29:26;;;;;;;14.50;13.00;;;17.20;99.90;;;;;;5001540;28;20471;-64
2023/09/29 05:31:55;;;;;;;13.80;12.07;;;17.30;99.90;;;;;;5003515;28;20578;-64
2023/09/29 05:34:23;;;;;;;13.60;12.50;;;17.30;99.90;;;;;;5005067;28;20562;-63
2023/09/29 05:36:51;;;;;;;13.23;12.13;;;17.30;99.90;;;;;;4999364;28;20514;-63
2023/09/29 05:39:19;;;;;;;13.20;12.10;;;17.30;99.90;;;;;;5001889;28;20562;-63
2023/09/29 05:41:47;;;;;;;13.43;12.23;;;17.20;99.90;;;;;;5003850;28;20472;-63
2023/09/29 05:44:16;;;;;;;13.37;12.13;;;17.30;99.90;;;;;;5000828;28;20571;-63
2023/09/29 05:46:44;;;;;;;14.03;12.73;;;17.30;99.90;;;;;;5001825;28;20468;-63
2023/09/29 05:49:14;;;;;;;16.33;14.90;;;17.30;99.90;;;;;;5000802;28;20480;-63
2023/09/29 05:51:42;;;;;;;13.90;12.70;;;17.20;99.90;;;;;;5000859;28;20560;-63
2023/09/29 05:54:10;;;;;;;15.30;13.87;;;17.20;99.90;;;;;;4999234;28;20559;-63
2023/09/29 05:56:38;;;;;;;14.97;13.57;;;17.20;99.90;;;;;;5008577;28;20468;-63
2023/09/29 05:59:06;;;;;;;13.50;12.30;;;17.20;99.90;;;;;;5009721;28;20588;-63
2023/09/29 06:01:34;;;;;;;14.73;13.33;;;17.30;99.90;;;;;;5005162;28;20503;-63
2023/09/29 06:04:02;;;;;;;14.90;13.50;;;17.30;99.90;;;;;;5015643;28;20487;-63
2023/09/29 06:06:31;;;;;;;15.00;13.67;;;17.30;99.90;;;;;;5015216;28;20467;-63
2023/09/29 06:09:00;;;;;;;14.93;13.50;;;17.30;99.90;;;;;;5011805;28;20468;-63
2023/09/29 06:11:28;;;;;;;15.50;14.10;;;17.30;99.90;;;;;;5010816;28;20473;-63
2023/09/29 06:13:56;;;;;;;15.80;13.83;;;17.30;99.90;;;;;;5014469;28;20523;-63
2023/09/29 06:16:24;;;;;;;15.50;14.20;;;17.30;99.90;;;;;;5010970;28;20472;-63
2023/09/29 06:18:52;;;;;;;15.63;14.23;;;17.30;99.90;;;;;;5010301;28;20526;-63
2023/09/29 06:21:20;;;;;;;15.60;14.10;;;17.40;99.90;;;;;;5009628;28;20480;-63
2023/09/29 06:23:50;;;;;;;15.53;13.93;;;17.40;99.90;;;;;;5009867;28;20576;-64
2023/09/29 06:26:18;;;;;;;14.70;13.40;;;17.40;99.90;;;;;;5002042;28;20518;-64
2023/09/29 06:28:46;;;;;;;14.20;12.90;;;17.40;99.90;;;;;;5004115;28;20578;-64
2023/09/29 06:31:14;;;;;;;13.93;12.70;;;17.40;99.90;;;;;;5008942;28;20567;-64
2023/09/29 06:33:43;;;;;;;14.60;13.30;;;17.40;99.90;;;;;;5003909;28;20479;-64
2023/09/29 06:36:11;;;;;;;14.67;13.27;;;17.40;99.90;;;;;;5033246;22;20594;-57
2023/09/29 06:38:39;;;;;;;14.20;12.90;;;17.40;99.90;;;;;;5024962;28;20471;-57
2023/09/29 06:41:08;;;;;;;14.97;13.50;;;17.50;99.90;;;;;;5021780;28;20475;-57
2023/09/29 06:43:37;;;;;;;15.50;13.80;;;17.50;99.90;;;;;;5027653;28;20573;-57
2023/09/29 06:46:05;;;;;;;14.07;12.87;;;17.50;99.90;;;;;;5026687;28;20577;-58
2023/09/29 06:48:34;;;;;;;14.67;13.40;;;17.50;99.90;;;;;;5024776;28;20467;-57
2023/09/29 06:51:02;;;;;;;13.33;12.23;;;17.50;99.90;;;;;;5026899;28;20499;-57
2023/09/29 06:53:31;;;;;;;14.60;13.10;;;17.50;99.90;;;;;;5024069;28;20479;-58
2023/09/29 06:55:59;;;;;;;13.77;12.60;;;17.60;99.90;;;;;;5022399;28;20533;-58
2023/09/29 06:58:29;;;;;;;14.13;13.00;;;17.60;99.90;;;;;;5024663;28;20471;-58
2023/09/29 07:00:58;;;;;;;14.30;13.10;;;17.60;99.90;;;;;;5020192;28;22620;-58
2023/09/29 07:03:31;;;;;;;14.17;12.97;;;17.60;99.90;;;;;;5023526;28;20498;-58
2023/09/29 07:06:01;;;;;;;13.53;12.43;;;17.60;99.90;;;;;;5022466;28;20874;-58
2023/09/29 07:08:29;;;;;;;14.63;13.20;;;17.60;99.90;;;;;;5021250;28;20502;-58
2023/09/29 07:10:58;;;;;;;14.83;13.33;;;17.60;99.90;;;;;;5025671;28;20819;-58
2023/09/29 07:13:26;;;;;;;14.10;12.70;;;17.70;99.90;;;;;;5025410;28;20478;-58
2023/09/29 07:15:56;;;;;;;13.80;12.40;;;17.70;99.90;;;;;;5028439;28;20501;-58
2023/09/29 07:18:23;;;;;;;14.30;13.00;;;17.70;99.90;;;;;;5022181;28;20550;-57
2023/09/29 07:20:53;;;;;;;13.40;12.33;;;17.70;99.90;;;;;;5021617;28;20957;-56
2023/09/29 07:23:21;;;;;;;13.93;12.63;;;17.80;99.90;;;;;;5026358;28;20475;-57
2023/09/29 07:25:51;;;;;;;13.07;11.97;;;17.80;99.90;;;;;;5028230;28;20499;-57
2023/09/29 07:28:20;;;;;;;13.10;11.90;;;17.90;99.90;;;;;;5029117;28;20557;-57
2023/09/29 07:30:50;;;;;;;13.07;11.97;;;17.90;99.90;;;;;;5027618;28;20567;-58
2023/09/29 07:33:20;;;;;;;13.83;12.53;;;18.00;99.90;;;;;;5027205;28;20558;-58
2023/09/29 07:35:48;;;;;;;13.20;11.43;;;18.00;99.90;;;;;;5028633;28;20645;-58
2023/09/29 07:38:17;;;;;;;13.60;12.50;;;18.00;99.90;;;;;;5024102;28;20964;-58
2023/09/29 07:40:47;;;;;;;13.50;12.10;;;18.00;99.90;;;;;;5018428;28;20562;-57
2023/09/29 07:43:15;;;;;;;13.80;11.90;;;18.00;99.90;;;;;;5021131;28;20546;-57
2023/09/29 07:45:43;;;;;;;11.87;10.77;;;18.00;99.90;;;;;;5029507;28;20578;-57
2023/09/29 07:48:16;;;;;;;12.57;11.40;;;18.00;99.90;;;;;;5022909;28;20471;-57
2023/09/29 07:50:46;;;;;;;14.50;13.33;;;18.00;99.90;;;;;;5027519;28;20956;-58
2023/09/29 07:53:14;;;;;;;14.50;13.00;;;18.00;99.90;;;;;;5024609;28;20463;-58
2023/09/29 07:55:43;;;;;;;13.20;12.00;;;18.00;99.90;;;;;;5022335;28;20602;-58
2023/09/29 07:58:11;;;;;;;14.10;12.80;;;18.10;99.90;;;;;;5022743;28;20583;-57
2023/09/29 08:00:39;;;;;;;14.03;12.93;;;18.10;99.90;;;;;;5024636;28;20473;-58
2023/09/29 08:03:07;;;;;;;13.70;12.30;;;18.10;99.90;;;;;;5026192;28;20545;-58
2023/09/29 08:05:35;;;;;;;14.23;12.20;;;18.20;99.90;;;;;;5024254;28;20502;-58
2023/09/29 08:08:06;;;;;;;13.43;12.17;;;18.20;99.90;;;;;;5022048;28;20533;-58
2023/09/29 08:10:34;;;;;;;13.40;12.13;;;18.30;99.90;;;;;;5026475;28;20509;-58
2023/09/29 08:13:02;;;;;;;12.83;11.53;;;18.30;99.90;;;;;;5021480;28;21033;-58
2023/09/29 08:15:30;;;;;;;11.80;10.53;;;18.40;99.90;;;;;;5021523;28;20498;-58
2023/09/29 08:17:58;;;;;;;16.33;12.03;;;18.40;99.90;;;;;;5022186;28;20560;-58
2023/09/29 08:20:26;;;;;;;12.83;11.67;;;18.50;99.90;;;;;;5026902;28;20475;-58
2023/09/29 08:22:54;;;;;;;12.20;11.10;;;18.50;99.90;;;;;;5025052;28;20471;-58
2023/09/29 08:25:24;;;;;;;13.77;12.33;;;18.40;99.90;;;;;;5028482;28;20495;-58
2023/09/29 08:27:52;;;;;;;12.80;11.50;;;18.50;99.90;;;;;;5025441;28;20471;-58
2023/09/29 08:30:21;;;;;;;13.70;12.20;;;18.50;99.90;;;;;;5026668;28;20499;-58
2023/09/29 08:32:49;;;;;;;13.40;12.20;;;18.50;99.90;;;;;;5022408;28;20471;-58
2023/09/29 08:35:23;;;;;;;12.33;11.07;;;18.60;99.90;;;;;;5028339;28;20482;-58
2023/09/29 08:37:51;;;;;;;12.93;11.67;;;18.60;99.90;;;;;;5022093;28;20478;-58
2023/09/29 08:40:19;;;;;;;11.60;10.50;;;18.70;99.90;;;;;;5027228;28;20969;-58
2023/09/29 08:42:50;;;;;;;12.33;11.23;;;18.70;99.90;;;;;;5025220;28;20566;-57
2023/09/29 08:45:19;;;;;;;11.10;9.97;;;18.80;99.90;;;;;;5022860;28;20491;-58
2023/09/29 08:47:51;;;;;;;11.40;10.10;;;18.90;99.90;;;;;;5021890;28;20507;-58
2023/09/29 08:50:23;;;;;;;11.73;10.57;;;18.90;99.90;;;;;;5022818;28;20574;-58
2023/09/29 08:52:52;;;;;;;10.40;9.40;;;19.00;99.90;;;;;;5021559;28;20471;-58
2023/09/29 08:55:23;;;;;;;10.17;9.17;;;19.10;99.90;;;;;;5024032;28;20487;-57
2023/09/29 08:57:54;;;;;;;10.37;9.33;;;19.10;99.90;;;;;;5022597;28;20686;-58
2023/09/29 09:00:24;;;;;;;9.93;9.17;;;19.20;99.90;;;;;;5021040;28;20848;-58
2023/09/29 09:02:54;;;;;;;11.17;10.23;;;19.30;99.90;;;;;;5020855;28;20475;-58
2023/09/29 09:05:23;;;;;;;11.07;10.00;;;19.30;99.90;;;;;;5020583;28;20582;-57
2023/09/29 09:07:53;;;;;;;9.90;9.20;;;19.30;99.90;;;;;;5022923;28;20507;-57
2023/09/29 09:10:30;;;;;;;11.10;9.43;;;19.30;99.90;;;;;;5022433;28;20843;-57
2023/09/29 09:13:05;;;;;;;10.90;9.90;;;19.30;99.90;;;;;;5023428;28;20467;-58
2023/09/29 09:15:33;;;;;;;11.00;9.90;;;19.30;99.90;;;;;;5016653;28;20486;-58
2023/09/29 09:18:03;;;;;;;11.20;10.20;;;19.30;99.90;;;;;;5021818;28;20554;-58
2023/09/29 09:20:33;;;;;;;11.30;10.20;;;19.30;99.90;;;;;;5022867;28;20528;-57
2023/09/29 09:23:03;;;;;;;10.13;9.23;;;19.30;99.90;;;;;;5020684;28;20475;-58
2023/09/29 09:25:34;;;;;;;10.10;9.10;;;19.30;99.90;;;;;;5023748;28;20507;-58
2023/09/29 09:28:05;;;;;;;10.27;9.37;;;19.30;99.90;;;;;;5027204;28;20475;-58
2023/09/29 09:30:35;;;;;;;10.73;9.73;;;19.30;99.90;;;;;;5014498;28;20562;-57
2023/09/29 09:33:05;;;;;;;13.33;9.70;;;19.30;99.90;;;;;;5023522;28;20478;-58
2023/09/29 09:35:37;;;;;;;10.10;9.13;;;19.30;99.90;;;;;;5024937;28;20863;-57
2023/09/29 09:38:06;;;;;;;9.90;9.00;;;19.30;99.90;;;;;;5025476;28;20775;-58
2023/09/29 09:40:35;;;;;;;9.57;8.77;;;19.30;99.90;;;;;;5023879;28;21031;-58
2023/09/29 09:43:08;;;;;;;9.37;8.27;;;19.30;99.90;;;;;;5025261;28;20555;-58
2023/09/29 09:45:39;;;;;;;10.20;8.30;;;19.30;99.90;;;;;;5022073;28;20496;-56
2023/09/29 09:48:09;;;;;;;9.07;8.37;;;19.30;99.90;;;;;;5022583;28;20467;-58
2023/09/29 09:50:43;;;;;;;10.13;9.17;;;19.40;99.90;;;;;;5024239;28;20506;-57
2023/09/29 09:53:13;;;;;;;9.33;8.30;;;19.40;99.90;;;;;;5019785;28;20554;-58
2023/09/29 09:55:50;;;;;;;8.33;7.63;;;19.40;99.90;;;;;;5022459;28;20976;-57
2023/09/29 09:58:23;;;;;;;8.83;8.10;;;19.40;99.90;;;;;;5023699;28;20498;-57
2023/09/29 10:00:54;;;;;;;8.77;8.07;;;19.40;99.90;;;;;;5022334;28;20469;-58
2023/09/29 10:03:25;;;;;;;9.27;8.47;;;19.40;99.90;;;;;;5019251;28;20566;-58
2023/09/29 10:05:55;;;;;;;10.20;8.63;;;19.50;99.90;;;;;;5018663;28;20530;-58
2023/09/29 10:08:30;;;;;;;9.73;8.83;;;19.50;99.90;;;;;;5024000;28;20471;-58
2023/09/29 10:11:13;;;;;;;8.83;8.03;;;19.50;99.90;;;;;;5026115;28;20532;-58
2023/09/29 10:13:44;;;;;;;8.83;8.03;;;19.60;99.90;;;;;;5023270;28;20499;-58
2023/09/29 10:16:22;;;;;;;8.10;7.40;;;19.60;99.90;;;;;;5027050;28;20486;-58
2023/09/29 10:18:58;;;;;;;7.90;7.20;;;19.70;99.90;;;;;;5030635;28;20554;-58
2023/09/29 10:21:28;;;;;;;8.23;7.53;;;19.70;99.90;;;;;;5024346;28;20474;-58
2023/09/29 10:24:00;;;;;;;8.13;7.30;;;19.70;99.90;;;;;;5027203;28;20955;-58
2023/09/29 10:26:28;;;;;;;7.93;7.23;;;19.80;99.90;;;;;;5022373;28;20892;-58
2023/09/29 10:29:06;;;;;;;8.60;7.20;;;19.90;99.90;;;;;;5027137;28;20504;-58
2023/09/29 10:31:35;;;;;;;7.50;6.97;;;20.00;99.90;;;;;;5024738;28;20555;-58
2023/09/29 10:34:03;;;;;;;7.33;6.63;;;20.10;99.90;;;;;;5027465;28;20477;-58
2023/09/29 10:36:31;;;;;;;6.73;6.13;;;20.30;99.90;;;;;;5027957;28;20491;-57
2023/09/29 10:39:04;;;;;;;7.90;7.00;;;20.40;99.90;;;;;;5028345;28;20478;-58
2023/09/29 10:41:34;;;;;;;6.47;6.00;;;20.50;99.90;;;;;;5026821;28;20467;-58
2023/09/29 10:44:06;;;;;;;7.00;6.37;;;20.70;99.90;;;;;;5026344;28;20562;-57
2023/09/29 10:46:34;;;;;;;6.33;5.70;;;20.90;99.90;;;;;;5027366;28;20494;-58
2023/09/29 10:49:02;;;;;;;6.27;5.67;;;21.10;99.90;;;;;;5026360;28;20953;-57
2023/09/29 10:51:31;;;;;;;5.83;5.27;;;21.40;99.90;;;;;;5025609;28;20471;-58
2023/09/29 10:54:06;;;;;;;6.27;5.73;;;21.60;99.90;;;;;;5025742;28;20507;-57
2023/09/29 10:56:36;;;;;;;5.57;5.10;;;21.70;99.90;;;;;;5026663;28;20525;-57
2023/09/29 10:59:08;;;;;;;5.30;4.80;;;21.80;99.90;;;;;;5028487;28;20990;-58
2023/09/29 11:01:36;;;;;;;6.67;5.43;;;21.80;99.90;;;;;;5021427;28;20475;-57
2023/09/29 11:04:07;;;;;;;5.83;5.33;;;21.90;99.90;;;;;;5025449;28;21017;-58
2023/09/29 11:06:41;;;;;;;5.43;4.40;;;21.90;99.90;;;;;;5024366;28;20498;-58
2023/09/29 11:09:15;;;;;;;6.63;4.90;;;22.00;99.90;;;;;;5026939;28;20463;-57
2023/09/29 11:11:45;;;;;;;5.33;4.70;;;21.90;99.90;;;;;;5021329;28;20463;-57
2023/09/29 11:14:14;;;;;;;6.07;4.80;;;21.90;99.90;;;;;;5020944;28;20949;-57
2023/09/29 11:16:42;;;;;;;5.63;5.13;;;21.80;99.90;;;;;;5025223;28;20511;-58
2023/09/29 11:19:11;;;;;;;6.20;5.53;;;21.80;99.90;;;;;;5017846;28;20549;-59
2023/09/29 11:21:41;;;;;;;6.17;5.67;;;21.80;99.90;;;;;;5019796;28;20464;-58
2023/09/29 11:24:10;;;;;;;5.10;4.70;;;22.00;99.90;;;;;;5024148;28;20472;-59
2023/09/29 11:26:42;;;;;;;5.57;5.00;;;22.00;99.90;;;;;;5026617;28;20864;-59
2023/09/29 11:29:22;;;;;;;5.30;4.80;;;22.00;99.90;;;;;;5019867;28;20463;-59
2023/09/29 11:31:51;;;;;;;5.90;4.93;;;22.10;99.90;;;;;;5020598;28;20529;-60
2023/09/29 11:34:19;;;;;;;5.23;4.73;;;22.20;99.90;;;;;;5023604;28;20503;-60
2023/09/29 11:36:48;;;;;;;7.20;4.97;;;22.30;99.90;;;;;;5026825;28;20507;-59
2023/09/29 11:39:18;;;;;;;5.27;4.40;;;22.50;99.90;;;;;;5017659;28;20467;-59
2023/09/29 11:41:47;;;;;;;4.90;4.43;;;22.70;99.90;;;;;;5023967;28;20494;-60
2023/09/29 11:44:16;;;;;;;6.67;6.10;;;22.90;99.90;;;;;;5024653;28;20471;-59
2023/09/29 11:46:45;;;;;;;6.27;4.90;;;23.10;99.90;;;;;;5024469;28;20531;-60
2023/09/29 11:49:13;;;;;;;5.20;4.70;;;23.30;99.90;;;;;;5020588;28;20460;-60
2023/09/29 11:51:41;;;;;;;5.80;4.27;;;23.50;99.90;;;;;;5025192;28;20483;-59
2023/09/29 11:54:09;;;;;;;5.33;4.80;;;23.60;99.90;;;;;;5020944;28;20644;-59
2023/09/29 11:56:38;;;;;;;5.67;5.07;;;23.70;99.90;;;;;;5020162;28;20934;-59
2023/09/29 11:59:06;;;;;;;6.73;4.63;;;23.80;99.90;;;;;;5019180;28;20945;-59
2023/09/29 12:01:34;;;;;;;5.90;4.70;;;23.70;99.90;;;;;;5020946;28;20480;-59
2023/09/29 12:04:04;;;;;;;4.50;3.97;;;23.70;99.90;;;;;;5015424;28;20488;-58
2023/09/29 12:06:32;;;;;;;5.33;4.83;;;23.80;99.90;;;;;;5017922;28;20827;-60
2023/09/29 12:09:00;;;;;;;5.60;5.10;;;24.00;99.90;;;;;;5017322;28;20479;-58
2023/09/29 12:11:28;;;;;;;4.30;4.00;;;24.40;99.90;;;;;;5019983;28;20533;-59
2023/09/29 12:13:57;;;;;;;4.43;4.10;;;24.60;99.90;;;;;;5022198;28;20479;-59
2023/09/29 12:16:25;;;;;;;4.57;4.13;;;24.90;99.90;;;;;;5018718;28;20506;-59
2023/09/29 12:18:53;;;;;;;4.70;4.00;;;25.10;99.90;;;;;;5007276;28;20479;-58
2023/09/29 12:21:23;;;;;;;4.43;4.13;;;25.30;99.90;;;;;;5015294;28;20467;-58
2023/09/29 12:23:51;;;;;;;4.97;4.37;;;25.60;99.90;;;;;;5014801;28;20469;-57
2023/09/29 12:26:19;;;;;;;4.70;4.27;;;25.70;99.90;;;;;;5016868;28;20483;-58
2023/09/29 12:28:48;;;;;;;4.60;4.23;;;25.60;99.90;;;;;;5019705;28;20958;-57
2023/09/29 12:31:17;;;;;;;4.50;4.10;;;25.50;99.90;;;;;;5022994;28;21144;-58
2023/09/29 12:33:46;;;;;;;4.83;4.27;;;25.00;99.90;;;;;;5025231;28;20481;-57
2023/09/29 12:36:14;;;;;;;5.17;4.77;;;24.70;99.90;;;;;;5020437;28;20491;-58
2023/09/29 12:38:44;;;;;;;6.43;4.20;;;24.60;99.90;;;;;;5020218;28;20549;-58
2023/09/29 12:41:13;;;;;;;6.10;4.00;;;24.60;99.90;;;;;;5018521;28;20468;-56
2023/09/29 12:43:43;;;;;;;5.20;4.70;;;24.60;99.90;;;;;;5015391;28;20554;-57
2023/09/29 12:46:11;;;;;;;5.07;4.47;;;24.90;99.90;;;;;;5019188;28;20976;-57